Meteoliendo - El tiempo en Liendo - Informes METAR de Aeropuertos cercanos

Informes METAR de Aeropuertos cercanos

 

LEXJ - Santander
Actualización: 11/12/2018 03:00
Mist, Parcialmente nuboso
Mist, Parcialmente nuboso
 Viento del varies
Viento: varies 4 km/h
Temperatura: 6°C
Rocío: 6°C
Humedad: 100%
Barómetro: 1024 hPa
Resumen: Mist
Clouds: Parcialmente nuboso
Visibility: 5 km
2018/12/11 02:00 LEXJ 110200Z AUTO VRB02KT 5000 BR NSC 06/06 Q1024
LEAS - Asturias/Aviles
Actualización: 11/12/2018 03:00
Despejado
Despejado
 Viento del varies
Viento: varies 2 km/h
Temperatura: 6°C
Rocío: 4°C
Humedad: 87%
Barómetro: 1023 hPa
Resumen: Despejado
Visibility: greater than 10 km
2018/12/11 02:00 LEAS 110200Z AUTO VRB01KT CAVOK 06/04 Q1023
LEBB - Bilbao
Actualización: 11/12/2018 03:00
Despejado
Despejado
 Viento del SE
Viento: SE 6 km/h
Temperatura: 5°C
Rocío: 5°C
Humedad: 100%
Barómetro: 1026 hPa
Resumen: Despejado
Visibility: greater than 10 km
2018/12/11 02:00 LEBB 110200Z AUTO 13003KT 100V160 CAVOK 05/05 Q1026
 
LEBG - Burgos/Villafría
Actualización: 11/12/2018 03:00
Despejado
Despejado
 Viento del calm
Viento: Calma
Temperatura: 0°C
Rocío: -2°C
Humedad: 87%
Barómetro: 1025 hPa
Clouds: Despejado
Visibility: 10 km
2018/12/11 02:00 LEBG 110200Z AUTO 00000KT 9999 NCD M00/M02 Q1025
LELO - Logroño
Actualización: 11/12/2018 03:00
Despejado
Despejado
 Viento del varies
Viento: varies 4 km/h
Temperatura: 3°C
Rocío: 2°C
Humedad: 93%
Barómetro: 1025 hPa
Resumen: Despejado
Visibility: greater than 10 km
2018/12/11 02:00 LELO 110200Z AUTO VRB02KT CAVOK 03/02 Q1025
LEPP - Pamplona
Actualización: 11/12/2018 03:00
Despejado
Despejado
 Viento del calm
Viento: Calma
Temperatura: 2°C
Rocío: 1°C
Humedad: 93%
Barómetro: 1025 hPa
Clouds: Despejado
Visibility: 10 km
2018/12/11 02:00 LEPP 110200Z AUTO 00000KT 9999 NCD 02/01 Q1025
 
LESO - San Sebastián
Actualización: 11/12/2018 03:00
Despejado
Despejado
 Viento del varies
Viento: varies 2 km/h
Temperatura: 6°C
Rocío: 5°C
Humedad: 93%
Barómetro: 1026 hPa
Clouds: Despejado
Visibility: 8 km
2018/12/11 02:00 LESO 110200Z AUTO VRB01KT 8000 NCD 06/05 Q1026
LEST - Santiago de Compostela
Actualización: 11/12/2018 03:00
Despejado
Despejado
 Viento del SSE
Viento: SSE 17 km/h
Temperatura: 11°C
Rocío: 1°C
Humedad: 50%
Barómetro: 1022 hPa
Resumen: Despejado
Visibility: greater than 10 km
2018/12/11 02:00 LEST 110200Z 15009KT CAVOK 11/01 Q1022 NOSIG
LEVT - Vitoria
Actualización: 11/12/2018 03:00
Few Clouds
Few Clouds
 Viento del NNE
Viento: NNE 6 km/h
Temperatura: -1°C
Rocío: -1°C
Humedad: 100%
Barómetro: 1025 hPa
Clouds: Few Clouds
Visibility: 6 km
Cloud details: Few Clouds 61 m
2018/12/11 02:00 LEVT 110200Z 03003KT 6000 FEW002 M01/M01 Q1025